Olivesburg, Ohio
Current Conditions -  °F | °C
As of 1:52 AM on Saturday 25 Oct 2014 (Local Time) from KMFD Reporting Station
Overcast Overcast  
Wind Chill: 47°   Ceiling: 4000
Heat Index: 49°   Visibility: 10mi
Dew Point: 41°   Wind: 6mph
Humidity: 74%   Direction: 200°SSW
Pressure: 29.99"   Gusts: NA
Location:  40.8738°N, 82.3197°W
Report Text: KMFD 250552Z 20005KT 10SM OVC040 09/05 A2999 RMK AO2 SLP155 T00940050 10133 20078 58007
Loading
Personal Weather Stations






























Interactive Weather Map
Tropical Storm Tracking
New forecast layout! Learn more

10-Day Weather Forecast

Advertisements
Track Severe Weather on mobile